sensor_id;sensor_type;location;lat;lon;timestamp;temperature;humidity
45229;DHT22;30967;51.728;8.682;2022-09-01T00:02:14;20.50;73.70
45229;DHT22;30967;51.728;8.682;2022-09-01T00:04:43;20.50;73.80
45229;DHT22;30967;51.728;8.682;2022-09-01T00:07:10;20.50;73.80
45229;DHT22;30967;51.728;8.682;2022-09-01T00:09:37;20.50;74.20
45229;DHT22;30967;51.728;8.682;2022-09-01T00:12:06;20.40;74.20
45229;DHT22;30967;51.728;8.682;2022-09-01T00:14:36;20.40;74.40
45229;DHT22;30967;51.728;8.682;2022-09-01T00:17:05;20.40;74.90
45229;DHT22;30967;51.728;8.682;2022-09-01T00:19:31;20.30;74.90
45229;DHT22;30967;51.728;8.682;2022-09-01T00:21:58;20.30;75.10
45229;DHT22;30967;51.728;8.682;2022-09-01T00:24:25;20.30;75.20
45229;DHT22;30967;51.728;8.682;2022-09-01T00:26:51;20.20;75.20
45229;DHT22;30967;51.728;8.682;2022-09-01T00:29:17;20.20;75.40
45229;DHT22;30967;51.728;8.682;2022-09-01T00:31:43;20.20;75.60
45229;DHT22;30967;51.728;8.682;2022-09-01T00:34:09;20.20;75.30
45229;DHT22;30967;51.728;8.682;2022-09-01T00:36:35;20.20;75.30
45229;DHT22;30967;51.728;8.682;2022-09-01T00:39:02;20.10;75.30
45229;DHT22;30967;51.728;8.682;2022-09-01T00:41:31;20.20;75.20
45229;DHT22;30967;51.728;8.682;2022-09-01T00:44:03;20.10;75.10
45229;DHT22;30967;51.728;8.682;2022-09-01T00:46:42;20.20;75.30
45229;DHT22;30967;51.728;8.682;2022-09-01T00:49:13;20.10;75.30
45229;DHT22;30967;51.728;8.682;2022-09-01T00:51:42;20.10;75.50
45229;DHT22;30967;51.728;8.682;2022-09-01T00:54:11;20.10;75.70
45229;DHT22;30967;51.728;8.682;2022-09-01T00:56:39;20.00;75.70
45229;DHT22;30967;51.728;8.682;2022-09-01T00:59:06;20.00;75.50
45229;DHT22;30967;51.728;8.682;2022-09-01T01:01:34;19.90;75.60
45229;DHT22;30967;51.728;8.682;2022-09-01T01:04:02;19.90;75.60
45229;DHT22;30967;51.728;8.682;2022-09-01T01:06:28;19.90;75.60
45229;DHT22;30967;51.728;8.682;2022-09-01T01:08:56;19.90;76.00
45229;DHT22;30967;51.728;8.682;2022-09-01T01:11:30;19.90;76.50
45229;DHT22;30967;51.728;8.682;2022-09-01T01:14:01;19.80;76.70
45229;DHT22;30967;51.728;8.682;2022-09-01T01:16:34;19.80;76.20
45229;DHT22;30967;51.728;8.682;2022-09-01T01:19:01;19.70;75.90
45229;DHT22;30967;51.728;8.682;2022-09-01T01:21:35;19.70;75.80
45229;DHT22;30967;51.728;8.682;2022-09-01T01:24:33;19.60;75.60
45229;DHT22;30967;51.728;8.682;2022-09-01T01:26:59;19.60;75.60
45229;DHT22;30967;51.728;8.682;2022-09-01T01:29:26;19.60;75.70
45229;DHT22;30967;51.728;8.682;2022-09-01T01:31:56;19.60;75.80
45229;DHT22;30967;51.728;8.682;2022-09-01T01:34:21;19.60;75.70
45229;DHT22;30967;51.728;8.682;2022-09-01T01:36:47;19.60;75.90
45229;DHT22;30967;51.728;8.682;2022-09-01T01:39:18;19.50;76.00
45229;DHT22;30967;51.728;8.682;2022-09-01T01:41:46;19.50;76.10
45229;DHT22;30967;51.728;8.682;2022-09-01T01:44:16;19.50;76.00
45229;DHT22;30967;51.728;8.682;2022-09-01T01:46:45;19.50;76.20
45229;DHT22;30967;51.728;8.682;2022-09-01T01:49:12;19.50;76.30
45229;DHT22;30967;51.728;8.682;2022-09-01T01:51:40;19.50;76.10
45229;DHT22;30967;51.728;8.682;2022-09-01T01:54:06;19.50;76.00
45229;DHT22;30967;51.728;8.682;2022-09-01T01:56:33;19.50;76.10
45229;DHT22;30967;51.728;8.682;2022-09-01T01:59:02;19.50;76.20
45229;DHT22;30967;51.728;8.682;2022-09-01T02:01:28;19.50;76.20
45229;DHT22;30967;51.728;8.682;2022-09-01T02:03:57;19.40;76.60
45229;DHT22;30967;51.728;8.682;2022-09-01T02:06:25;19.40;76.90
45229;DHT22;30967;51.728;8.682;2022-09-01T02:08:53;19.40;77.20
45229;DHT22;30967;51.728;8.682;2022-09-01T02:11:25;19.30;77.30
45229;DHT22;30967;51.728;8.682;2022-09-01T02:13:55;19.30;77.50
45229;DHT22;30967;51.728;8.682;2022-09-01T02:16:22;19.20;77.50
45229;DHT22;30967;51.728;8.682;2022-09-01T02:18:48;19.20;78.30
45229;DHT22;30967;51.728;8.682;2022-09-01T02:21:18;19.10;77.60
45229;DHT22;30967;51.728;8.682;2022-09-01T02:23:56;19.10;77.30
45229;DHT22;30967;51.728;8.682;2022-09-01T02:26:31;19.00;77.20
45229;DHT22;30967;51.728;8.682;2022-09-01T02:29:00;19.00;77.00
45229;DHT22;30967;51.728;8.682;2022-09-01T02:31:33;19.00;77.00
45229;DHT22;30967;51.728;8.682;2022-09-01T02:34:07;19.00;77.00
45229;DHT22;30967;51.728;8.682;2022-09-01T02:36:36;19.00;76.90
45229;DHT22;30967;51.728;8.682;2022-09-01T02:39:13;18.90;77.10
45229;DHT22;30967;51.728;8.682;2022-09-01T02:41:39;18.90;77.30
45229;DHT22;30967;51.728;8.682;2022-09-01T02:44:05;18.90;77.40
45229;DHT22;30967;51.728;8.682;2022-09-01T02:46:43;18.90;77.40
45229;DHT22;30967;51.728;8.682;2022-09-01T02:49:13;18.90;77.80
45229;DHT22;30967;51.728;8.682;2022-09-01T02:51:46;18.90;77.90
45229;DHT22;30967;51.728;8.682;2022-09-01T02:54:13;18.80;78.00
45229;DHT22;30967;51.728;8.682;2022-09-01T02:56:42;18.80;78.10
45229;DHT22;30967;51.728;8.682;2022-09-01T02:59:13;18.70;78.10
45229;DHT22;30967;51.728;8.682;2022-09-01T03:01:40;18.70;78.20
45229;DHT22;30967;51.728;8.682;2022-09-01T03:04:07;18.70;78.40
45229;DHT22;30967;51.728;8.682;2022-09-01T03:06:36;18.70;78.50
45229;DHT22;30967;51.728;8.682;2022-09-01T03:09:09;18.70;78.50
45229;DHT22;30967;51.728;8.682;2022-09-01T03:11:36;18.60;78.60
45229;DHT22;30967;51.728;8.682;2022-09-01T03:14:03;18.60;78.70
45229;DHT22;30967;51.728;8.682;2022-09-01T03:16:29;18.50;78.80
45229;DHT22;30967;51.728;8.682;2022-09-01T03:18:56;18.50;78.80
45229;DHT22;30967;51.728;8.682;2022-09-01T03:21:22;18.50;78.70
45229;DHT22;30967;51.728;8.682;2022-09-01T03:23:49;18.50;79.10
45229;DHT22;30967;51.728;8.682;2022-09-01T03:26:16;18.50;78.90
45229;DHT22;30967;51.728;8.682;2022-09-01T03:28:44;18.40;78.80
45229;DHT22;30967;51.728;8.682;2022-09-01T03:31:10;18.40;79.10
45229;DHT22;30967;51.728;8.682;2022-09-01T03:33:35;18.30;79.00
45229;DHT22;30967;51.728;8.682;2022-09-01T03:36:01;18.20;78.90
45229;DHT22;30967;51.728;8.682;2022-09-01T03:38:27;18.20;78.90
45229;DHT22;30967;51.728;8.682;2022-09-01T03:40:57;18.20;78.90
45229;DHT22;30967;51.728;8.682;2022-09-01T03:43:25;18.10;79.00
45229;DHT22;30967;51.728;8.682;2022-09-01T03:45:56;18.00;78.90
45229;DHT22;30967;51.728;8.682;2022-09-01T03:48:28;18.00;79.60
45229;DHT22;30967;51.728;8.682;2022-09-01T03:50:57;18.00;79.00
45229;DHT22;30967;51.728;8.682;2022-09-01T03:53:28;17.90;78.90
45229;DHT22;30967;51.728;8.682;2022-09-01T03:55:55;17.90;79.10
45229;DHT22;30967;51.728;8.682;2022-09-01T03:58:23;17.90;79.30
45229;DHT22;30967;51.728;8.682;2022-09-01T04:00:52;17.90;79.50
45229;DHT22;30967;51.728;8.682;2022-09-01T04:03:28;17.90;79.70
45229;DHT22;30967;51.728;8.682;2022-09-01T04:05:55;17.80;79.80
45229;DHT22;30967;51.728;8.682;2022-09-01T04:08:22;17.80;79.70
45229;DHT22;30967;51.728;8.682;2022-09-01T04:10:52;17.80;79.80
45229;DHT22;30967;51.728;8.682;2022-09-01T04:13:25;17.70;80.00
45229;DHT22;30967;51.728;8.682;2022-09-01T04:15:51;17.70;80.70
45229;DHT22;30967;51.728;8.682;2022-09-01T04:18:17;17.60;79.90
45229;DHT22;30967;51.728;8.682;2022-09-01T04:20:55;17.60;79.90
45229;DHT22;30967;51.728;8.682;2022-09-01T04:23:28;17.60;80.00
45229;DHT22;30967;51.728;8.682;2022-09-01T04:26:10;17.50;80.00
45229;DHT22;30967;51.728;8.682;2022-09-01T04:28:45;17.50;80.20
45229;DHT22;30967;51.728;8.682;2022-09-01T04:31:14;17.50;80.40
45229;DHT22;30967;51.728;8.682;2022-09-01T04:33:42;17.50;80.40
45229;DHT22;30967;51.728;8.682;2022-09-01T04:36:17;17.40;80.50
45229;DHT22;30967;51.728;8.682;2022-09-01T04:38:48;17.40;80.60
45229;DHT22;30967;51.728;8.682;2022-09-01T04:41:14;17.40;80.80
45229;DHT22;30967;51.728;8.682;2022-09-01T04:43:43;17.30;80.90
45229;DHT22;30967;51.728;8.682;2022-09-01T04:46:10;17.30;80.90
45229;DHT22;30967;51.728;8.682;2022-09-01T04:48:39;17.30;80.90
45229;DHT22;30967;51.728;8.682;2022-09-01T04:51:11;17.20;80.90
45229;DHT22;30967;51.728;8.682;2022-09-01T04:53:40;17.20;81.10
45229;DHT22;30967;51.728;8.682;2022-09-01T04:56:14;17.10;81.20
45229;DHT22;30967;51.728;8.682;2022-09-01T04:58:40;17.10;81.30
45229;DHT22;30967;51.728;8.682;2022-09-01T05:01:16;17.10;81.50
45229;DHT22;30967;51.728;8.682;2022-09-01T05:03:43;17.10;81.60
45229;DHT22;30967;51.728;8.682;2022-09-01T05:06:18;17.10;81.80
45229;DHT22;30967;51.728;8.682;2022-09-01T05:08:44;17.00;82.00
45229;DHT22;30967;51.728;8.682;2022-09-01T05:11:12;17.00;82.20
45229;DHT22;30967;51.728;8.682;2022-09-01T05:13:41;17.00;82.00
45229;DHT22;30967;51.728;8.682;2022-09-01T05:16:09;17.00;82.30
45229;DHT22;30967;51.728;8.682;2022-09-01T05:18:41;16.90;82.40
45229;DHT22;30967;51.728;8.682;2022-09-01T05:21:10;16.90;82.40
45229;DHT22;30967;51.728;8.682;2022-09-01T05:23:39;16.90;82.40
45229;DHT22;30967;51.728;8.682;2022-09-01T05:26:13;16.90;82.60
45229;DHT22;30967;51.728;8.682;2022-09-01T05:28:43;16.90;82.80
45229;DHT22;30967;51.728;8.682;2022-09-01T05:31:09;16.80;82.80
45229;DHT22;30967;51.728;8.682;2022-09-01T05:33:35;16.80;83.10
45229;DHT22;30967;51.728;8.682;2022-09-01T05:36:02;16.80;83.40
45229;DHT22;30967;51.728;8.682;2022-09-01T05:38:33;16.80;83.60
45229;DHT22;30967;51.728;8.682;2022-09-01T05:41:01;16.80;83.90
45229;DHT22;30967;51.728;8.682;2022-09-01T05:43:28;16.80;84.10
45229;DHT22;30967;51.728;8.682;2022-09-01T05:45:55;16.80;84.50
45229;DHT22;30967;51.728;8.682;2022-09-01T05:48:22;16.70;84.80
45229;DHT22;30967;51.728;8.682;2022-09-01T05:50:49;16.70;84.80
45229;DHT22;30967;51.728;8.682;2022-09-01T05:53:17;16.80;85.10
45229;DHT22;30967;51.728;8.682;2022-09-01T05:55:43;16.70;85.50
45229;DHT22;30967;51.728;8.682;2022-09-01T05:58:12;16.80;86.00
45229;DHT22;30967;51.728;8.682;2022-09-01T06:00:41;16.80;86.40
45229;DHT22;30967;51.728;8.682;2022-09-01T06:03:09;16.80;86.50
45229;DHT22;30967;51.728;8.682;2022-09-01T06:05:35;16.80;86.30
45229;DHT22;30967;51.728;8.682;2022-09-01T06:08:02;16.90;86.30
45229;DHT22;30967;51.728;8.682;2022-09-01T06:10:30;16.80;86.30
45229;DHT22;30967;51.728;8.682;2022-09-01T06:12:56;16.90;86.70
45229;DHT22;30967;51.728;8.682;2022-09-01T06:15:28;16.90;86.90
45229;DHT22;30967;51.728;8.682;2022-09-01T06:17:54;16.90;87.30
45229;DHT22;30967;51.728;8.682;2022-09-01T06:20:20;16.90;87.70
45229;DHT22;30967;51.728;8.682;2022-09-01T06:22:47;17.00;88.10
45229;DHT22;30967;51.728;8.682;2022-09-01T06:25:16;16.90;88.00
45229;DHT22;30967;51.728;8.682;2022-09-01T06:27:43;17.00;88.30
45229;DHT22;30967;51.728;8.682;2022-09-01T06:30:10;17.00;88.40
45229;DHT22;30967;51.728;8.682;2022-09-01T06:32:41;17.00;88.50
45229;DHT22;30967;51.728;8.682;2022-09-01T06:35:12;17.00;88.90
45229;DHT22;30967;51.728;8.682;2022-09-01T06:37:41;17.00;88.70
45229;DHT22;30967;51.728;8.682;2022-09-01T06:40:09;17.10;88.50
45229;DHT22;30967;51.728;8.682;2022-09-01T06:42:51;17.10;88.70
45229;DHT22;30967;51.728;8.682;2022-09-01T06:45:22;17.20;88.70
45229;DHT22;30967;51.728;8.682;2022-09-01T06:47:49;17.20;88.80
45229;DHT22;30967;51.728;8.682;2022-09-01T06:50:18;17.20;89.10
45229;DHT22;30967;51.728;8.682;2022-09-01T06:52:47;17.20;88.90
45229;DHT22;30967;51.728;8.682;2022-09-01T06:55:15;17.30;89.00
45229;DHT22;30967;51.728;8.682;2022-09-01T06:57:42;17.40;89.30
45229;DHT22;30967;51.728;8.682;2022-09-01T07:00:13;17.40;89.50
45229;DHT22;30967;51.728;8.682;2022-09-01T07:02:53;17.40;89.80
45229;DHT22;30967;51.728;8.682;2022-09-01T07:05:20;17.40;89.60
45229;DHT22;30967;51.728;8.682;2022-09-01T07:07:50;17.50;90.10
45229;DHT22;30967;51.728;8.682;2022-09-01T07:10:20;17.50;89.60
45229;DHT22;30967;51.728;8.682;2022-09-01T07:12:51;17.50;90.00
45229;DHT22;30967;51.728;8.682;2022-09-01T07:15:17;17.60;90.10
45229;DHT22;30967;51.728;8.682;2022-09-01T07:17:49;17.60;89.90
45229;DHT22;30967;51.728;8.682;2022-09-01T07:20:17;17.70;90.20
45229;DHT22;30967;51.728;8.682;2022-09-01T07:22:48;17.70;90.20
45229;DHT22;30967;51.728;8.682;2022-09-01T07:25:14;17.80;90.30
45229;DHT22;30967;51.728;8.682;2022-09-01T07:27:42;17.80;90.20
45229;DHT22;30967;51.728;8.682;2022-09-01T07:30:14;17.90;90.70
45229;DHT22;30967;51.728;8.682;2022-09-01T07:32:40;17.90;90.50
45229;DHT22;30967;51.728;8.682;2022-09-01T07:35:08;18.00;90.40
45229;DHT22;30967;51.728;8.682;2022-09-01T07:37:34;18.00;90.40
45229;DHT22;30967;51.728;8.682;2022-09-01T07:40:10;18.00;90.20
45229;DHT22;30967;51.728;8.682;2022-09-01T07:42:36;18.10;90.00
45229;DHT22;30967;51.728;8.682;2022-09-01T07:45:10;18.20;90.10
45229;DHT22;30967;51.728;8.682;2022-09-01T07:47:37;18.20;89.80
45229;DHT22;30967;51.728;8.682;2022-09-01T07:50:04;18.20;89.30
45229;DHT22;30967;51.728;8.682;2022-09-01T07:52:39;18.30;90.20
45229;DHT22;30967;51.728;8.682;2022-09-01T07:55:11;18.30;89.30
45229;DHT22;30967;51.728;8.682;2022-09-01T07:57:39;18.40;88.90
45229;DHT22;30967;51.728;8.682;2022-09-01T08:00:08;18.40;89.10
45229;DHT22;30967;51.728;8.682;2022-09-01T08:02:34;18.50;89.10
45229;DHT22;30967;51.728;8.682;2022-09-01T08:05:04;18.60;88.80
45229;DHT22;30967;51.728;8.682;2022-09-01T08:07:36;18.60;88.90
45229;DHT22;30967;51.728;8.682;2022-09-01T08:10:03;18.70;89.00
45229;DHT22;30967;51.728;8.682;2022-09-01T08:12:29;18.70;89.60
45229;DHT22;30967;51.728;8.682;2022-09-01T08:14:55;18.80;89.10
45229;DHT22;30967;51.728;8.682;2022-09-01T08:17:21;18.80;88.90
45229;DHT22;30967;51.728;8.682;2022-09-01T08:19:46;18.90;88.90
45229;DHT22;30967;51.728;8.682;2022-09-01T08:22:14;18.90;88.50
45229;DHT22;30967;51.728;8.682;2022-09-01T08:24:40;19.00;87.80
45229;DHT22;30967;51.728;8.682;2022-09-01T08:27:05;19.10;88.50
45229;DHT22;30967;51.728;8.682;2022-09-01T08:29:32;19.20;87.90
45229;DHT22;30967;51.728;8.682;2022-09-01T08:31:58;19.20;87.30
45229;DHT22;30967;51.728;8.682;2022-09-01T08:34:24;19.20;87.00
45229;DHT22;30967;51.728;8.682;2022-09-01T08:36:50;19.30;86.70
45229;DHT22;30967;51.728;8.682;2022-09-01T08:39:17;19.40;86.30
45229;DHT22;30967;51.728;8.682;2022-09-01T08:41:51;19.40;85.90
45229;DHT22;30967;51.728;8.682;2022-09-01T08:44:34;19.50;86.10
45229;DHT22;30967;51.728;8.682;2022-09-01T08:47:08;19.60;85.80
45229;DHT22;30967;51.728;8.682;2022-09-01T08:49:35;19.70;85.40
45229;DHT22;30967;51.728;8.682;2022-09-01T08:52:07;19.70;85.10
45229;DHT22;30967;51.728;8.682;2022-09-01T08:54:47;19.70;84.70
45229;DHT22;30967;51.728;8.682;2022-09-01T08:57:19;19.80;83.70
45229;DHT22;30967;51.728;8.682;2022-09-01T08:59:46;19.90;83.00
45229;DHT22;30967;51.728;8.682;2022-09-01T09:05:21;20.00;82.00
45229;DHT22;30967;51.728;8.682;2022-09-01T09:08:14;20.10;82.60
45229;DHT22;30967;51.728;8.682;2022-09-01T09:10:59;20.10;82.00
45229;DHT22;30967;51.728;8.682;2022-09-01T09:16:43;20.30;81.40
45229;DHT22;30967;51.728;8.682;2022-09-01T09:19:10;20.30;79.80
45229;DHT22;30967;51.728;8.682;2022-09-01T09:21:44;20.40;80.50
45229;DHT22;30967;51.728;8.682;2022-09-01T09:26:40;20.50;81.00
45229;DHT22;30967;51.728;8.682;2022-09-01T09:29:06;20.70;80.80
45229;DHT22;30967;51.728;8.682;2022-09-01T09:31:37;20.70;80.30
45229;DHT22;30967;51.728;8.682;2022-09-01T09:34:31;20.80;79.70
45229;DHT22;30967;51.728;8.682;2022-09-01T09:37:25;20.90;79.90
45229;DHT22;30967;51.728;8.682;2022-09-01T09:42:26;21.00;77.80
45229;DHT22;30967;51.728;8.682;2022-09-01T09:44:52;21.10;77.20
45229;DHT22;30967;51.728;8.682;2022-09-01T09:47:38;21.10;77.00
45229;DHT22;30967;51.728;8.682;2022-09-01T09:53:24;21.20;76.60
45229;DHT22;30967;51.728;8.682;2022-09-01T09:55:57;21.30;75.90
45229;DHT22;30967;51.728;8.682;2022-09-01T09:58:38;21.30;75.40
45229;DHT22;30967;51.728;8.682;2022-09-01T10:03:42;21.40;74.90
45229;DHT22;30967;51.728;8.682;2022-09-01T10:06:14;21.40;74.20
45229;DHT22;30967;51.728;8.682;2022-09-01T10:08:44;21.50;73.90
45229;DHT22;30967;51.728;8.682;2022-09-01T10:11:24;21.50;73.50
45229;DHT22;30967;51.728;8.682;2022-09-01T10:13:52;21.60;73.40
45229;DHT22;30967;51.728;8.682;2022-09-01T10:16:31;21.60;73.70
45229;DHT22;30967;51.728;8.682;2022-09-01T10:19:00;21.70;73.40
45229;DHT22;30967;51.728;8.682;2022-09-01T10:21:33;21.70;72.40
45229;DHT22;30967;51.728;8.682;2022-09-01T10:24:13;21.70;72.50
45229;DHT22;30967;51.728;8.682;2022-09-01T10:26:41;21.80;72.60
45229;DHT22;30967;51.728;8.682;2022-09-01T10:29:45;21.80;72.80
45229;DHT22;30967;51.728;8.682;2022-09-01T10:32:17;21.90;72.80
45229;DHT22;30967;51.728;8.682;2022-09-01T10:34:45;22.00;72.50
45229;DHT22;30967;51.728;8.682;2022-09-01T10:37:12;22.00;72.20
45229;DHT22;30967;51.728;8.682;2022-09-01T10:40:10;22.10;72.00
45229;DHT22;30967;51.728;8.682;2022-09-01T10:42:37;22.10;71.40
45229;DHT22;30967;51.728;8.682;2022-09-01T10:45:04;22.10;71.40
45229;DHT22;30967;51.728;8.682;2022-09-01T10:47:40;22.20;72.20
45229;DHT22;30967;51.728;8.682;2022-09-01T10:50:29;22.20;70.20
45229;DHT22;30967;51.728;8.682;2022-09-01T10:53:00;22.30;69.50
45229;DHT22;30967;51.728;8.682;2022-09-01T10:55:34;22.30;69.60
45229;DHT22;30967;51.728;8.682;2022-09-01T10:58:32;22.40;69.10
45229;DHT22;30967;51.728;8.682;2022-09-01T11:01:00;22.40;68.80
45229;DHT22;30967;51.728;8.682;2022-09-01T11:06:08;22.60;68.90
45229;DHT22;30967;51.728;8.682;2022-09-01T11:08:44;22.60;68.60
45229;DHT22;30967;51.728;8.682;2022-09-01T11:13:50;22.70;66.90
45229;DHT22;30967;51.728;8.682;2022-09-01T11:16:36;22.70;65.60
45229;DHT22;30967;51.728;8.682;2022-09-01T11:19:32;22.80;66.00
45229;DHT22;30967;51.728;8.682;2022-09-01T11:22:18;22.80;66.40
45229;DHT22;30967;51.728;8.682;2022-09-01T11:25:08;22.90;66.10
45229;DHT22;30967;51.728;8.682;2022-09-01T11:27:56;22.90;66.00
45229;DHT22;30967;51.728;8.682;2022-09-01T11:30:36;23.00;66.50
45229;DHT22;30967;51.728;8.682;2022-09-01T11:38:49;23.10;67.30
45229;DHT22;30967;51.728;8.682;2022-09-01T11:41:25;23.10;67.70
45229;DHT22;30967;51.728;8.682;2022-09-01T11:43:55;23.20;68.50
45229;DHT22;30967;51.728;8.682;2022-09-01T11:46:33;23.20;68.00
45229;DHT22;30967;51.728;8.682;2022-09-01T11:49:06;23.30;68.00
45229;DHT22;30967;51.728;8.682;2022-09-01T11:51:44;23.30;68.10
45229;DHT22;30967;51.728;8.682;2022-09-01T11:54:10;23.30;68.20
45229;DHT22;30967;51.728;8.682;2022-09-01T11:56:37;23.30;68.60
45229;DHT22;30967;51.728;8.682;2022-09-01T11:59:03;23.40;68.50
45229;DHT22;30967;51.728;8.682;2022-09-01T12:03:54;23.40;68.10
45229;DHT22;30967;51.728;8.682;2022-09-01T12:06:26;23.40;67.30
45229;DHT22;30967;51.728;8.682;2022-09-01T12:08:56;23.50;66.30
45229;DHT22;30967;51.728;8.682;2022-09-01T12:11:25;23.50;65.90
45229;DHT22;30967;51.728;8.682;2022-09-01T12:14:06;23.50;65.60
45229;DHT22;30967;51.728;8.682;2022-09-01T12:16:35;23.60;65.90
45229;DHT22;30967;51.728;8.682;2022-09-01T12:19:03;23.60;66.20
45229;DHT22;30967;51.728;8.682;2022-09-01T12:21:37;23.60;65.50
45229;DHT22;30967;51.728;8.682;2022-09-01T12:24:22;23.70;65.50
45229;DHT22;30967;51.728;8.682;2022-09-01T12:26:50;23.70;65.50
45229;DHT22;30967;51.728;8.682;2022-09-01T12:29:20;23.80;65.40
45229;DHT22;30967;51.728;8.682;2022-09-01T12:31:48;23.90;65.70
45229;DHT22;30967;51.728;8.682;2022-09-01T12:37:18;24.00;65.50
45229;DHT22;30967;51.728;8.682;2022-09-01T12:39:48;24.00;65.00
45229;DHT22;30967;51.728;8.682;2022-09-01T12:44:47;24.10;64.90
45229;DHT22;30967;51.728;8.682;2022-09-01T12:50:31;24.20;64.70
45229;DHT22;30967;51.728;8.682;2022-09-01T12:53:00;24.30;63.90
45229;DHT22;30967;51.728;8.682;2022-09-01T12:55:32;24.40;64.60
45229;DHT22;30967;51.728;8.682;2022-09-01T12:58:05;24.40;63.40
45229;DHT22;30967;51.728;8.682;2022-09-01T13:00:34;24.50;63.90
45229;DHT22;30967;51.728;8.682;2022-09-01T13:05:34;24.80;64.50
45229;DHT22;30967;51.728;8.682;2022-09-01T13:08:09;24.90;64.40
45229;DHT22;30967;51.728;8.682;2022-09-01T13:10:38;25.10;64.40
45229;DHT22;30967;51.728;8.682;2022-09-01T13:13:07;25.20;64.10
45229;DHT22;30967;51.728;8.682;2022-09-01T13:15:36;25.30;63.00
45229;DHT22;30967;51.728;8.682;2022-09-01T13:18:02;25.50;63.90
45229;DHT22;30967;51.728;8.682;2022-09-01T13:20:28;25.70;63.80
45229;DHT22;30967;51.728;8.682;2022-09-01T13:23:04;25.80;63.70
45229;DHT22;30967;51.728;8.682;2022-09-01T13:25:30;26.00;63.70
45229;DHT22;30967;51.728;8.682;2022-09-01T13:27:55;26.30;64.30
45229;DHT22;30967;51.728;8.682;2022-09-01T13:30:24;26.40;63.80
45229;DHT22;30967;51.728;8.682;2022-09-01T13:32:53;26.50;64.60
45229;DHT22;30967;51.728;8.682;2022-09-01T13:35:20;26.80;64.50
45229;DHT22;30967;51.728;8.682;2022-09-01T13:37:47;27.00;64.50
45229;DHT22;30967;51.728;8.682;2022-09-01T13:40:14;27.10;63.70
45229;DHT22;30967;51.728;8.682;2022-09-01T13:42:51;27.20;63.80
45229;DHT22;30967;51.728;8.682;2022-09-01T13:45:19;27.40;64.10
45229;DHT22;30967;51.728;8.682;2022-09-01T13:47:46;27.50;63.50
45229;DHT22;30967;51.728;8.682;2022-09-01T13:50:15;27.60;63.40
45229;DHT22;30967;51.728;8.682;2022-09-01T13:52:45;27.80;62.30
45229;DHT22;30967;51.728;8.682;2022-09-01T13:55:18;27.90;62.50
45229;DHT22;30967;51.728;8.682;2022-09-01T13:57:43;28.00;62.60
45229;DHT22;30967;51.728;8.682;2022-09-01T14:00:12;28.10;62.30
45229;DHT22;30967;51.728;8.682;2022-09-01T14:02:44;28.20;62.90
45229;DHT22;30967;51.728;8.682;2022-09-01T14:05:15;28.40;62.30
45229;DHT22;30967;51.728;8.682;2022-09-01T14:07:40;28.50;63.00
45229;DHT22;30967;51.728;8.682;2022-09-01T14:10:06;28.70;62.30
45229;DHT22;30967;51.728;8.682;2022-09-01T14:12:33;28.80;61.80
45229;DHT22;30967;51.728;8.682;2022-09-01T14:14:59;28.90;59.10
45229;DHT22;30967;51.728;8.682;2022-09-01T14:17:25;28.90;60.40
45229;DHT22;30967;51.728;8.682;2022-09-01T14:19:51;29.00;61.00
45229;DHT22;30967;51.728;8.682;2022-09-01T14:22:17;29.10;61.70
45229;DHT22;30967;51.728;8.682;2022-09-01T14:24:43;29.20;60.70
45229;DHT22;30967;51.728;8.682;2022-09-01T14:27:08;29.40;60.40
45229;DHT22;30967;51.728;8.682;2022-09-01T14:29:35;29.50;60.70
45229;DHT22;30967;51.728;8.682;2022-09-01T14:32:01;29.60;60.80
45229;DHT22;30967;51.728;8.682;2022-09-01T14:34:28;29.70;61.30
45229;DHT22;30967;51.728;8.682;2022-09-01T14:36:55;29.80;60.50
45229;DHT22;30967;51.728;8.682;2022-09-01T14:39:23;29.90;60.30
45229;DHT22;30967;51.728;8.682;2022-09-01T14:41:49;29.90;59.70
45229;DHT22;30967;51.728;8.682;2022-09-01T14:44:14;29.90;60.20
45229;DHT22;30967;51.728;8.682;2022-09-01T14:46:40;30.10;59.50
45229;DHT22;30967;51.728;8.682;2022-09-01T14:49:06;30.10;59.50
45229;DHT22;30967;51.728;8.682;2022-09-01T14:51:32;30.20;59.00
45229;DHT22;30967;51.728;8.682;2022-09-01T14:53:58;30.30;59.30
45229;DHT22;30967;51.728;8.682;2022-09-01T14:56:24;30.30;58.90
45229;DHT22;30967;51.728;8.682;2022-09-01T14:58:50;30.30;58.90
45229;DHT22;30967;51.728;8.682;2022-09-01T15:01:19;30.30;58.90
45229;DHT22;30967;51.728;8.682;2022-09-01T15:03:50;30.40;58.20
45229;DHT22;30967;51.728;8.682;2022-09-01T15:06:17;30.30;57.70
45229;DHT22;30967;51.728;8.682;2022-09-01T15:08:43;30.30;57.30
45229;DHT22;30967;51.728;8.682;2022-09-01T15:11:10;30.20;57.10
45229;DHT22;30967;51.728;8.682;2022-09-01T15:13:37;30.20;57.20
45229;DHT22;30967;51.728;8.682;2022-09-01T15:16:03;30.10;58.00
45229;DHT22;30967;51.728;8.682;2022-09-01T15:18:29;30.10;57.40
45229;DHT22;30967;51.728;8.682;2022-09-01T15:20:55;30.10;57.20
45229;DHT22;30967;51.728;8.682;2022-09-01T15:23:24;30.10;56.90
45229;DHT22;30967;51.728;8.682;2022-09-01T15:25:52;30.00;56.80
45229;DHT22;30967;51.728;8.682;2022-09-01T15:28:19;30.00;56.30
45229;DHT22;30967;51.728;8.682;2022-09-01T15:30:45;29.90;56.80
45229;DHT22;30967;51.728;8.682;2022-09-01T15:33:11;29.90;57.10
45229;DHT22;30967;51.728;8.682;2022-09-01T15:35:37;29.80;57.20
45229;DHT22;30967;51.728;8.682;2022-09-01T15:38:04;29.80;57.20
45229;DHT22;30967;51.728;8.682;2022-09-01T15:40:31;29.70;56.40
45229;DHT22;30967;51.728;8.682;2022-09-01T15:42:57;29.60;56.10
45229;DHT22;30967;51.728;8.682;2022-09-01T15:45:25;29.50;55.70
45229;DHT22;30967;51.728;8.682;2022-09-01T15:47:51;29.40;55.30
45229;DHT22;30967;51.728;8.682;2022-09-01T15:50:20;29.40;56.20
45229;DHT22;30967;51.728;8.682;2022-09-01T15:52:58;29.30;56.10
45229;DHT22;30967;51.728;8.682;2022-09-01T15:55:25;29.20;55.60
45229;DHT22;30967;51.728;8.682;2022-09-01T15:57:51;29.00;55.70
45229;DHT22;30967;51.728;8.682;2022-09-01T16:00:18;28.90;56.00
45229;DHT22;30967;51.728;8.682;2022-09-01T16:02:44;28.90;56.10
45229;DHT22;30967;51.728;8.682;2022-09-01T16:05:10;28.80;56.20
45229;DHT22;30967;51.728;8.682;2022-09-01T16:07:35;28.70;56.10
45229;DHT22;30967;51.728;8.682;2022-09-01T16:10:01;28.60;55.90
45229;DHT22;30967;51.728;8.682;2022-09-01T16:12:27;28.50;55.90
45229;DHT22;30967;51.728;8.682;2022-09-01T16:14:53;28.40;56.00
45229;DHT22;30967;51.728;8.682;2022-09-01T16:20:20;28.30;56.40
45229;DHT22;30967;51.728;8.682;2022-09-01T16:23:14;28.10;56.30
45229;DHT22;30967;51.728;8.682;2022-09-01T16:25:40;28.10;56.60
45229;DHT22;30967;51.728;8.682;2022-09-01T16:28:28;28.00;55.70
45229;DHT22;30967;51.728;8.682;2022-09-01T16:30:59;27.80;55.80
45229;DHT22;30967;51.728;8.682;2022-09-01T16:33:27;27.70;55.50